sensor_id;sensor_type;location;lat;lon;timestamp;P1;durP1;ratioP1;P2;durP2;ratioP2
5813;SDS011;2933;52.302;8.134;2022-12-18T00:04:14;49.03;;;17.57;;
5813;SDS011;2933;52.302;8.134;2022-12-18T00:09:19;45.73;;;18.80;;
5813;SDS011;2933;52.302;8.134;2022-12-18T00:14:21;51.90;;;19.37;;
5813;SDS011;2933;52.302;8.134;2022-12-18T00:19:24;55.33;;;18.40;;
5813;SDS011;2933;52.302;8.134;2022-12-18T00:24:26;51.00;;;18.10;;
5813;SDS011;2933;52.302;8.134;2022-12-18T00:29:27;48.90;;;19.03;;
5813;SDS011;2933;52.302;8.134;2022-12-18T00:34:30;40.73;;;16.13;;
5813;SDS011;2933;52.302;8.134;2022-12-18T00:39:32;50.03;;;18.67;;
5813;SDS011;2933;52.302;8.134;2022-12-18T00:44:33;42.13;;;13.73;;
5813;SDS011;2933;52.302;8.134;2022-12-18T00:49:36;41.50;;;15.90;;
5813;SDS011;2933;52.302;8.134;2022-12-18T00:54:38;48.93;;;16.17;;
5813;SDS011;2933;52.302;8.134;2022-12-18T00:59:40;41.90;;;16.47;;
5813;SDS011;2933;52.302;8.134;2022-12-18T01:04:42;37.90;;;15.00;;
5813;SDS011;2933;52.302;8.134;2022-12-18T01:09:44;38.17;;;14.43;;
5813;SDS011;2933;52.302;8.134;2022-12-18T01:14:45;38.90;;;16.37;;
5813;SDS011;2933;52.302;8.134;2022-12-18T01:19:48;41.73;;;16.30;;
5813;SDS011;2933;52.302;8.134;2022-12-18T01:24:50;44.83;;;16.23;;
5813;SDS011;2933;52.302;8.134;2022-12-18T01:29:51;39.63;;;14.13;;
5813;SDS011;2933;52.302;8.134;2022-12-18T01:34:54;34.10;;;15.20;;
5813;SDS011;2933;52.302;8.134;2022-12-18T01:39:56;36.47;;;14.57;;
5813;SDS011;2933;52.302;8.134;2022-12-18T01:45:00;37.47;;;14.03;;
5813;SDS011;2933;52.302;8.134;2022-12-18T01:50:06;41.87;;;13.10;;
5813;SDS011;2933;52.302;8.134;2022-12-18T01:55:10;40.30;;;14.50;;
5813;SDS011;2933;52.302;8.134;2022-12-18T02:00:14;26.37;;;13.00;;
5813;SDS011;2933;52.302;8.134;2022-12-18T02:05:23;36.13;;;13.40;;
5813;SDS011;2933;52.302;8.134;2022-12-18T02:10:33;25.43;;;12.03;;
5813;SDS011;2933;52.302;8.134;2022-12-18T02:15:44;37.93;;;13.03;;
5813;SDS011;2933;52.302;8.134;2022-12-18T02:20:54;34.17;;;13.70;;
5813;SDS011;2933;52.302;8.134;2022-12-18T02:26:04;33.67;;;13.67;;
5813;SDS011;2933;52.302;8.134;2022-12-18T02:31:10;25.33;;;10.77;;
5813;SDS011;2933;52.302;8.134;2022-12-18T02:36:15;30.93;;;11.60;;
5813;SDS011;2933;52.302;8.134;2022-12-18T02:41:23;29.00;;;12.50;;
5813;SDS011;2933;52.302;8.134;2022-12-18T02:46:27;28.47;;;12.10;;
5813;SDS011;2933;52.302;8.134;2022-12-18T02:51:32;38.50;;;12.77;;
5813;SDS011;2933;52.302;8.134;2022-12-18T02:56:45;25.83;;;11.57;;
5813;SDS011;2933;52.302;8.134;2022-12-18T03:01:53;26.63;;;11.47;;
5813;SDS011;2933;52.302;8.134;2022-12-18T03:07:03;32.03;;;12.27;;
5813;SDS011;2933;52.302;8.134;2022-12-18T03:12:13;19.40;;;9.43;;
5813;SDS011;2933;52.302;8.134;2022-12-18T03:17:25;25.40;;;10.73;;
5813;SDS011;2933;52.302;8.134;2022-12-18T03:22:29;30.97;;;12.07;;
5813;SDS011;2933;52.302;8.134;2022-12-18T03:27:35;29.77;;;12.10;;
5813;SDS011;2933;52.302;8.134;2022-12-18T03:32:41;25.23;;;10.40;;
5813;SDS011;2933;52.302;8.134;2022-12-18T03:37:47;21.53;;;9.27;;
5813;SDS011;2933;52.302;8.134;2022-12-18T03:42:51;28.43;;;9.43;;
5813;SDS011;2933;52.302;8.134;2022-12-18T03:47:59;20.80;;;9.10;;
5813;SDS011;2933;52.302;8.134;2022-12-18T03:53:06;24.10;;;10.17;;
5813;SDS011;2933;52.302;8.134;2022-12-18T03:58:17;29.90;;;10.27;;
5813;SDS011;2933;52.302;8.134;2022-12-18T04:03:24;25.27;;;8.80;;
5813;SDS011;2933;52.302;8.134;2022-12-18T04:08:27;28.57;;;9.30;;
5813;SDS011;2933;52.302;8.134;2022-12-18T04:13:31;14.47;;;7.53;;
5813;SDS011;2933;52.302;8.134;2022-12-18T04:18:35;21.67;;;8.80;;
5813;SDS011;2933;52.302;8.134;2022-12-18T04:23:37;20.13;;;9.57;;
5813;SDS011;2933;52.302;8.134;2022-12-18T04:28:40;22.30;;;7.97;;
5813;SDS011;2933;52.302;8.134;2022-12-18T04:33:41;18.17;;;8.87;;
5813;SDS011;2933;52.302;8.134;2022-12-18T04:38:43;28.23;;;9.10;;
5813;SDS011;2933;52.302;8.134;2022-12-18T04:43:46;16.43;;;7.57;;
5813;SDS011;2933;52.302;8.134;2022-12-18T04:48:47;17.80;;;8.60;;
5813;SDS011;2933;52.302;8.134;2022-12-18T04:53:49;16.27;;;7.90;;
5813;SDS011;2933;52.302;8.134;2022-12-18T04:58:51;13.93;;;7.33;;
5813;SDS011;2933;52.302;8.134;2022-12-18T05:03:53;9.47;;;4.87;;
5813;SDS011;2933;52.302;8.134;2022-12-18T05:08:55;12.40;;;7.30;;
5813;SDS011;2933;52.302;8.134;2022-12-18T05:13:57;13.30;;;6.40;;
5813;SDS011;2933;52.302;8.134;2022-12-18T05:18:59;13.47;;;6.20;;
5813;SDS011;2933;52.302;8.134;2022-12-18T05:24:01;14.83;;;6.27;;
5813;SDS011;2933;52.302;8.134;2022-12-18T05:29:03;17.03;;;7.20;;
5813;SDS011;2933;52.302;8.134;2022-12-18T05:34:05;13.53;;;6.67;;
5813;SDS011;2933;52.302;8.134;2022-12-18T05:39:07;11.37;;;5.67;;
5813;SDS011;2933;52.302;8.134;2022-12-18T05:44:10;14.90;;;7.17;;
5813;SDS011;2933;52.302;8.134;2022-12-18T05:49:11;14.10;;;6.53;;
5813;SDS011;2933;52.302;8.134;2022-12-18T05:54:13;10.30;;;6.80;;
5813;SDS011;2933;52.302;8.134;2022-12-18T05:59:16;20.97;;;7.60;;
5813;SDS011;2933;52.302;8.134;2022-12-18T06:04:17;11.80;;;5.53;;
5813;SDS011;2933;52.302;8.134;2022-12-18T06:09:19;17.80;;;6.83;;
5813;SDS011;2933;52.302;8.134;2022-12-18T06:14:22;12.77;;;5.90;;
5813;SDS011;2933;52.302;8.134;2022-12-18T06:19:23;10.90;;;6.10;;
5813;SDS011;2933;52.302;8.134;2022-12-18T06:24:25;16.30;;;7.30;;
5813;SDS011;2933;52.302;8.134;2022-12-18T06:29:27;21.03;;;8.00;;
5813;SDS011;2933;52.302;8.134;2022-12-18T06:34:29;17.17;;;7.77;;
5813;SDS011;2933;52.302;8.134;2022-12-18T06:39:31;22.40;;;7.27;;
5813;SDS011;2933;52.302;8.134;2022-12-18T06:44:33;12.80;;;6.67;;
5813;SDS011;2933;52.302;8.134;2022-12-18T06:49:35;16.50;;;7.13;;
5813;SDS011;2933;52.302;8.134;2022-12-18T06:54:37;17.13;;;7.83;;
5813;SDS011;2933;52.302;8.134;2022-12-18T06:59:39;16.77;;;7.63;;
5813;SDS011;2933;52.302;8.134;2022-12-18T07:04:41;24.30;;;7.70;;
5813;SDS011;2933;52.302;8.134;2022-12-18T07:09:42;16.57;;;8.30;;
5813;SDS011;2933;52.302;8.134;2022-12-18T07:14:45;16.67;;;6.67;;
5813;SDS011;2933;52.302;8.134;2022-12-18T07:19:47;12.07;;;6.07;;
5813;SDS011;2933;52.302;8.134;2022-12-18T07:24:48;16.97;;;7.23;;
5813;SDS011;2933;52.302;8.134;2022-12-18T07:29:51;18.50;;;7.67;;
5813;SDS011;2933;52.302;8.134;2022-12-18T07:34:53;24.70;;;8.17;;
5813;SDS011;2933;52.302;8.134;2022-12-18T07:39:54;18.17;;;8.07;;
5813;SDS011;2933;52.302;8.134;2022-12-18T07:44:57;17.70;;;7.80;;
5813;SDS011;2933;52.302;8.134;2022-12-18T07:49:59;17.27;;;8.23;;
5813;SDS011;2933;52.302;8.134;2022-12-18T07:55:01;22.43;;;8.57;;
5813;SDS011;2933;52.302;8.134;2022-12-18T08:00:04;24.40;;;8.90;;
5813;SDS011;2933;52.302;8.134;2022-12-18T08:05:07;17.90;;;8.90;;
5813;SDS011;2933;52.302;8.134;2022-12-18T08:10:09;24.50;;;9.40;;
5813;SDS011;2933;52.302;8.134;2022-12-18T08:15:12;17.40;;;8.00;;
5813;SDS011;2933;52.302;8.134;2022-12-18T08:20:13;18.47;;;7.50;;
5813;SDS011;2933;52.302;8.134;2022-12-18T08:25:17;17.90;;;8.20;;
5813;SDS011;2933;52.302;8.134;2022-12-18T08:30:20;20.10;;;8.90;;
5813;SDS011;2933;52.302;8.134;2022-12-18T08:35:21;13.20;;;6.40;;
5813;SDS011;2933;52.302;8.134;2022-12-18T08:40:23;14.57;;;8.17;;
5813;SDS011;2933;52.302;8.134;2022-12-18T08:45:25;19.10;;;7.60;;
5813;SDS011;2933;52.302;8.134;2022-12-18T08:50:27;14.97;;;8.67;;
5813;SDS011;2933;52.302;8.134;2022-12-18T08:55:28;16.43;;;8.60;;
5813;SDS011;2933;52.302;8.134;2022-12-18T09:00:32;13.37;;;7.50;;
5813;SDS011;2933;52.302;8.134;2022-12-18T09:05:33;22.80;;;8.40;;
5813;SDS011;2933;52.302;8.134;2022-12-18T09:10:45;14.43;;;8.20;;
5813;SDS011;2933;52.302;8.134;2022-12-18T09:15:51;18.30;;;8.53;;
5813;SDS011;2933;52.302;8.134;2022-12-18T09:20:54;18.80;;;9.20;;
5813;SDS011;2933;52.302;8.134;2022-12-18T09:25:58;17.77;;;8.43;;
5813;SDS011;2933;52.302;8.134;2022-12-18T09:31:04;18.67;;;8.93;;
5813;SDS011;2933;52.302;8.134;2022-12-18T09:36:14;26.57;;;10.27;;
5813;SDS011;2933;52.302;8.134;2022-12-18T09:41:19;22.93;;;11.07;;
5813;SDS011;2933;52.302;8.134;2022-12-18T09:46:36;21.50;;;11.67;;
5813;SDS011;2933;52.302;8.134;2022-12-18T09:51:42;21.47;;;10.27;;
5813;SDS011;2933;52.302;8.134;2022-12-18T09:56:48;30.47;;;11.50;;
5813;SDS011;2933;52.302;8.134;2022-12-18T10:01:51;22.40;;;11.93;;
5813;SDS011;2933;52.302;8.134;2022-12-18T10:06:54;27.90;;;12.50;;
5813;SDS011;2933;52.302;8.134;2022-12-18T10:12:05;24.50;;;12.07;;
5813;SDS011;2933;52.302;8.134;2022-12-18T10:17:14;26.80;;;13.50;;
5813;SDS011;2933;52.302;8.134;2022-12-18T10:22:26;25.63;;;11.80;;
5813;SDS011;2933;52.302;8.134;2022-12-18T10:27:37;29.17;;;11.37;;
5813;SDS011;2933;52.302;8.134;2022-12-18T10:32:40;20.23;;;9.70;;
5813;SDS011;2933;52.302;8.134;2022-12-18T10:43:10;20.47;;;10.50;;
5813;SDS011;2933;52.302;8.134;2022-12-18T10:48:19;16.13;;;8.97;;
5813;SDS011;2933;52.302;8.134;2022-12-18T10:53:23;20.17;;;9.20;;
5813;SDS011;2933;52.302;8.134;2022-12-18T10:58:28;23.57;;;10.67;;
5813;SDS011;2933;52.302;8.134;2022-12-18T11:03:34;35.80;;;10.50;;
5813;SDS011;2933;52.302;8.134;2022-12-18T11:08:38;19.50;;;10.37;;
5813;SDS011;2933;52.302;8.134;2022-12-18T11:13:40;19.97;;;9.50;;
5813;SDS011;2933;52.302;8.134;2022-12-18T11:18:43;22.27;;;9.60;;
5813;SDS011;2933;52.302;8.134;2022-12-18T11:23:46;15.77;;;7.47;;
5813;SDS011;2933;52.302;8.134;2022-12-18T11:28:51;16.50;;;8.60;;
5813;SDS011;2933;52.302;8.134;2022-12-18T11:34:09;18.50;;;8.53;;
5813;SDS011;2933;52.302;8.134;2022-12-18T11:39:16;18.93;;;10.03;;
5813;SDS011;2933;52.302;8.134;2022-12-18T11:44:21;20.13;;;8.80;;
5813;SDS011;2933;52.302;8.134;2022-12-18T11:49:30;21.80;;;8.43;;
5813;SDS011;2933;52.302;8.134;2022-12-18T11:54:34;15.10;;;8.33;;
5813;SDS011;2933;52.302;8.134;2022-12-18T11:59:37;16.40;;;7.37;;
5813;SDS011;2933;52.302;8.134;2022-12-18T12:04:58;12.37;;;8.00;;
5813;SDS011;2933;52.302;8.134;2022-12-18T12:10:18;14.57;;;8.10;;
5813;SDS011;2933;52.302;8.134;2022-12-18T12:15:32;12.40;;;6.67;;
5813;SDS011;2933;52.302;8.134;2022-12-18T12:20:44;15.53;;;7.90;;
5813;SDS011;2933;52.302;8.134;2022-12-18T12:25:55;14.30;;;7.07;;
5813;SDS011;2933;52.302;8.134;2022-12-18T12:31:05;11.83;;;5.90;;
5813;SDS011;2933;52.302;8.134;2022-12-18T12:36:15;10.43;;;5.47;;
5813;SDS011;2933;52.302;8.134;2022-12-18T12:41:22;13.40;;;6.10;;
5813;SDS011;2933;52.302;8.134;2022-12-18T12:46:45;9.10;;;5.87;;
5813;SDS011;2933;52.302;8.134;2022-12-18T12:51:52;11.10;;;5.70;;
5813;SDS011;2933;52.302;8.134;2022-12-18T12:57:01;8.07;;;6.03;;
5813;SDS011;2933;52.302;8.134;2022-12-18T13:02:13;13.90;;;6.07;;
5813;SDS011;2933;52.302;8.134;2022-12-18T13:07:23;7.00;;;4.53;;
5813;SDS011;2933;52.302;8.134;2022-12-18T13:12:29;8.40;;;5.17;;
5813;SDS011;2933;52.302;8.134;2022-12-18T13:18:02;7.07;;;5.00;;
5813;SDS011;2933;52.302;8.134;2022-12-18T13:33:56;11.23;;;5.40;;
5813;SDS011;2933;52.302;8.134;2022-12-18T13:44:38;6.83;;;4.67;;
5813;SDS011;2933;52.302;8.134;2022-12-18T13:49:41;10.00;;;5.10;;
5813;SDS011;2933;52.302;8.134;2022-12-18T13:54:47;7.53;;;4.30;;
5813;SDS011;2933;52.302;8.134;2022-12-18T13:59:52;10.93;;;4.40;;
5813;SDS011;2933;52.302;8.134;2022-12-18T14:04:53;6.43;;;4.17;;
5813;SDS011;2933;52.302;8.134;2022-12-18T14:09:57;5.60;;;4.23;;
5813;SDS011;2933;52.302;8.134;2022-12-18T14:15:00;7.10;;;4.50;;
5813;SDS011;2933;52.302;8.134;2022-12-18T14:20:04;7.80;;;4.40;;
5813;SDS011;2933;52.302;8.134;2022-12-18T14:25:16;6.93;;;3.90;;
5813;SDS011;2933;52.302;8.134;2022-12-18T14:30:29;12.43;;;4.93;;
5813;SDS011;2933;52.302;8.134;2022-12-18T14:35:33;8.30;;;4.03;;
5813;SDS011;2933;52.302;8.134;2022-12-18T14:40:37;12.30;;;4.57;;
5813;SDS011;2933;52.302;8.134;2022-12-18T14:45:39;13.73;;;4.77;;
5813;SDS011;2933;52.302;8.134;2022-12-18T14:50:43;7.03;;;4.60;;
5813;SDS011;2933;52.302;8.134;2022-12-18T14:55:47;6.20;;;3.93;;
5813;SDS011;2933;52.302;8.134;2022-12-18T15:00:49;13.93;;;5.27;;
5813;SDS011;2933;52.302;8.134;2022-12-18T15:05:52;6.27;;;4.60;;
5813;SDS011;2933;52.302;8.134;2022-12-18T15:10:54;7.73;;;4.23;;
5813;SDS011;2933;52.302;8.134;2022-12-18T15:15:57;6.87;;;4.10;;
5813;SDS011;2933;52.302;8.134;2022-12-18T15:21:07;8.50;;;5.13;;
5813;SDS011;2933;52.302;8.134;2022-12-18T15:26:12;5.33;;;3.50;;
5813;SDS011;2933;52.302;8.134;2022-12-18T15:31:22;8.37;;;4.47;;
5813;SDS011;2933;52.302;8.134;2022-12-18T15:36:30;6.17;;;4.47;;
5813;SDS011;2933;52.302;8.134;2022-12-18T15:41:37;5.10;;;3.80;;
5813;SDS011;2933;52.302;8.134;2022-12-18T15:46:39;9.37;;;5.07;;
5813;SDS011;2933;52.302;8.134;2022-12-18T15:51:40;7.60;;;4.43;;
5813;SDS011;2933;52.302;8.134;2022-12-18T15:56:43;5.40;;;4.37;;
5813;SDS011;2933;52.302;8.134;2022-12-18T16:02:07;5.83;;;3.77;;
5813;SDS011;2933;52.302;8.134;2022-12-18T16:07:17;12.23;;;4.67;;
5813;SDS011;2933;52.302;8.134;2022-12-18T16:12:20;8.57;;;4.80;;
5813;SDS011;2933;52.302;8.134;2022-12-18T16:17:24;8.67;;;4.53;;
5813;SDS011;2933;52.302;8.134;2022-12-18T16:22:27;11.07;;;5.27;;
5813;SDS011;2933;52.302;8.134;2022-12-18T16:27:31;11.03;;;4.10;;
5813;SDS011;2933;52.302;8.134;2022-12-18T16:32:32;8.97;;;4.60;;
5813;SDS011;2933;52.302;8.134;2022-12-18T16:37:36;12.70;;;5.40;;
5813;SDS011;2933;52.302;8.134;2022-12-18T16:42:41;11.13;;;4.57;;
5813;SDS011;2933;52.302;8.134;2022-12-18T16:47:44;8.10;;;4.90;;
5813;SDS011;2933;52.302;8.134;2022-12-18T16:52:46;8.53;;;4.83;;
5813;SDS011;2933;52.302;8.134;2022-12-18T16:57:49;9.50;;;5.57;;
5813;SDS011;2933;52.302;8.134;2022-12-18T17:02:53;10.30;;;4.97;;
5813;SDS011;2933;52.302;8.134;2022-12-18T17:07:54;7.70;;;5.17;;
5813;SDS011;2933;52.302;8.134;2022-12-18T17:12:57;7.20;;;4.83;;
5813;SDS011;2933;52.302;8.134;2022-12-18T17:18:01;10.67;;;5.03;;
5813;SDS011;2933;52.302;8.134;2022-12-18T17:23:02;7.67;;;4.63;;
5813;SDS011;2933;52.302;8.134;2022-12-18T17:28:08;10.20;;;4.80;;
5813;SDS011;2933;52.302;8.134;2022-12-18T17:33:13;5.60;;;3.90;;
5813;SDS011;2933;52.302;8.134;2022-12-18T17:38:15;12.47;;;5.50;;
5813;SDS011;2933;52.302;8.134;2022-12-18T17:43:28;8.70;;;5.77;;
5813;SDS011;2933;52.302;8.134;2022-12-18T17:48:34;7.90;;;5.40;;
5813;SDS011;2933;52.302;8.134;2022-12-18T17:53:36;11.90;;;5.90;;
5813;SDS011;2933;52.302;8.134;2022-12-18T18:04:31;8.77;;;5.43;;
5813;SDS011;2933;52.302;8.134;2022-12-18T18:09:33;12.67;;;5.43;;
5813;SDS011;2933;52.302;8.134;2022-12-18T18:14:35;9.03;;;5.70;;
5813;SDS011;2933;52.302;8.134;2022-12-18T18:19:38;11.43;;;5.80;;
5813;SDS011;2933;52.302;8.134;2022-12-18T18:24:42;9.07;;;6.13;;
5813;SDS011;2933;52.302;8.134;2022-12-18T18:29:44;11.27;;;5.87;;
5813;SDS011;2933;52.302;8.134;2022-12-18T18:34:47;10.83;;;6.13;;
5813;SDS011;2933;52.302;8.134;2022-12-18T18:39:48;11.60;;;6.60;;
5813;SDS011;2933;52.302;8.134;2022-12-18T18:45:09;8.30;;;5.70;;
5813;SDS011;2933;52.302;8.134;2022-12-18T18:50:42;10.17;;;5.77;;
5813;SDS011;2933;52.302;8.134;2022-12-18T18:55:47;12.83;;;6.70;;
5813;SDS011;2933;52.302;8.134;2022-12-18T19:01:02;15.27;;;7.00;;
5813;SDS011;2933;52.302;8.134;2022-12-18T19:06:29;13.13;;;6.23;;
5813;SDS011;2933;52.302;8.134;2022-12-18T19:11:45;12.40;;;6.57;;
5813;SDS011;2933;52.302;8.134;2022-12-18T19:17:04;15.90;;;7.07;;
5813;SDS011;2933;52.302;8.134;2022-12-18T19:22:07;12.90;;;6.97;;
5813;SDS011;2933;52.302;8.134;2022-12-18T19:27:10;11.63;;;6.50;;
5813;SDS011;2933;52.302;8.134;2022-12-18T19:32:11;16.43;;;7.83;;
5813;SDS011;2933;52.302;8.134;2022-12-18T19:37:14;17.17;;;7.53;;
5813;SDS011;2933;52.302;8.134;2022-12-18T19:42:23;15.80;;;7.87;;
5813;SDS011;2933;52.302;8.134;2022-12-18T19:47:42;13.23;;;6.80;;
5813;SDS011;2933;52.302;8.134;2022-12-18T19:52:45;14.30;;;7.47;;
5813;SDS011;2933;52.302;8.134;2022-12-18T19:58:06;25.60;;;9.70;;
5813;SDS011;2933;52.302;8.134;2022-12-18T20:03:52;15.80;;;8.10;;
5813;SDS011;2933;52.302;8.134;2022-12-18T20:14:41;15.17;;;7.50;;
5813;SDS011;2933;52.302;8.134;2022-12-18T20:19:49;12.70;;;7.47;;
5813;SDS011;2933;52.302;8.134;2022-12-18T20:24:58;18.47;;;8.83;;
5813;SDS011;2933;52.302;8.134;2022-12-18T20:30:00;19.30;;;8.53;;
5813;SDS011;2933;52.302;8.134;2022-12-18T20:35:09;19.03;;;8.90;;
5813;SDS011;2933;52.302;8.134;2022-12-18T20:46:15;25.97;;;10.67;;
5813;SDS011;2933;52.302;8.134;2022-12-18T20:51:18;21.70;;;9.77;;
5813;SDS011;2933;52.302;8.134;2022-12-18T20:56:33;21.60;;;10.00;;
5813;SDS011;2933;52.302;8.134;2022-12-18T21:01:36;31.03;;;11.10;;
5813;SDS011;2933;52.302;8.134;2022-12-18T21:06:44;21.93;;;9.73;;
5813;SDS011;2933;52.302;8.134;2022-12-18T21:11:53;25.53;;;11.50;;
5813;SDS011;2933;52.302;8.134;2022-12-18T21:17:13;29.17;;;10.77;;
5813;SDS011;2933;52.302;8.134;2022-12-18T21:22:15;31.43;;;10.50;;
5813;SDS011;2933;52.302;8.134;2022-12-18T21:27:20;21.77;;;10.10;;
5813;SDS011;2933;52.302;8.134;2022-12-18T21:32:23;30.63;;;11.13;;
5813;SDS011;2933;52.302;8.134;2022-12-18T21:37:24;39.03;;;13.63;;
5813;SDS011;2933;52.302;8.134;2022-12-18T21:42:26;33.60;;;13.17;;
5813;SDS011;2933;52.302;8.134;2022-12-18T21:47:46;24.73;;;10.53;;
5813;SDS011;2933;52.302;8.134;2022-12-18T21:52:48;29.80;;;11.10;;
5813;SDS011;2933;52.302;8.134;2022-12-18T21:57:52;24.73;;;11.07;;
5813;SDS011;2933;52.302;8.134;2022-12-18T22:03:14;28.23;;;12.43;;
5813;SDS011;2933;52.302;8.134;2022-12-18T22:08:16;30.07;;;10.77;;
5813;SDS011;2933;52.302;8.134;2022-12-18T22:13:17;27.50;;;12.20;;
5813;SDS011;2933;52.302;8.134;2022-12-18T22:18:20;27.47;;;11.20;;
5813;SDS011;2933;52.302;8.134;2022-12-18T22:23:22;27.10;;;12.27;;
5813;SDS011;2933;52.302;8.134;2022-12-18T22:28:24;25.30;;;11.00;;
5813;SDS011;2933;52.302;8.134;2022-12-18T22:33:44;30.17;;;12.23;;
5813;SDS011;2933;52.302;8.134;2022-12-18T22:38:46;31.33;;;11.83;;
5813;SDS011;2933;52.302;8.134;2022-12-18T22:43:47;33.60;;;12.20;;
5813;SDS011;2933;52.302;8.134;2022-12-18T22:48:50;21.30;;;10.60;;
5813;SDS011;2933;52.302;8.134;2022-12-18T22:53:53;29.17;;;12.30;;
5813;SDS011;2933;52.302;8.134;2022-12-18T22:58:54;32.17;;;12.40;;
5813;SDS011;2933;52.302;8.134;2022-12-18T23:03:57;31.00;;;12.17;;
5813;SDS011;2933;52.302;8.134;2022-12-18T23:08:59;25.93;;;10.63;;
5813;SDS011;2933;52.302;8.134;2022-12-18T23:14:01;26.60;;;11.77;;
5813;SDS011;2933;52.302;8.134;2022-12-18T23:19:04;27.17;;;11.67;;
5813;SDS011;2933;52.302;8.134;2022-12-18T23:24:06;28.63;;;11.40;;
5813;SDS011;2933;52.302;8.134;2022-12-18T23:29:08;24.07;;;11.17;;
5813;SDS011;2933;52.302;8.134;2022-12-18T23:34:12;27.30;;;10.87;;
5813;SDS011;2933;52.302;8.134;2022-12-18T23:39:14;32.60;;;11.30;;
5813;SDS011;2933;52.302;8.134;2022-12-18T23:44:16;23.27;;;10.17;;
5813;SDS011;2933;52.302;8.134;2022-12-18T23:49:18;27.70;;;10.40;;
5813;SDS011;2933;52.302;8.134;2022-12-18T23:54:20;27.10;;;10.97;;
5813;SDS011;2933;52.302;8.134;2022-12-18T23:59:21;25.47;;;10.40;;
